createdAt,value
2019-04-20T00:00:09.142Z,63.3
2019-04-20T00:05:03.501Z,63.74
2019-04-20T00:10:14.844Z,63.98
2019-04-20T00:15:01.201Z,64.93
2019-04-20T00:20:15.871Z,63.92
2019-04-20T00:25:10.367Z,63.88
2019-04-20T00:30:46.530Z,65.09
2019-04-20T00:35:02.338Z,64.37
2019-04-20T00:40:01.780Z,63.42
2019-04-20T00:45:18.118Z,62.46
2019-04-20T00:50:40.087Z,61.96
2019-04-20T00:55:02.525Z,62.33
2019-04-20T01:00:36.743Z,62.95
2019-04-20T01:05:39.313Z,63.77
2019-04-20T01:10:02.823Z,64.59
2019-04-20T01:15:09.839Z,65.37
2019-04-20T01:20:01.968Z,67.16
2019-04-20T01:25:18.016Z,66.83
2019-04-20T01:30:17.033Z,67.66
2019-04-20T01:35:35.431Z,67.38
2019-04-20T01:40:06.467Z,67.51
2019-04-20T01:45:12.794Z,68.24
2019-04-20T01:50:16.586Z,68.73
2019-04-20T01:55:42.313Z,69.6
2019-04-20T02:00:18.094Z,69.65
2019-04-20T02:05:16.498Z,69.66
2019-04-20T02:10:08.623Z,69.34
2019-04-20T02:15:07.979Z,68.86
2019-04-20T02:20:37.297Z,68.32
2019-04-20T02:25:01.868Z,68.73
2019-04-20T02:31:04.050Z,68.47
2019-04-20T02:36:18.776Z,69.05
2019-04-20T02:40:46.172Z,70.51
2019-04-20T02:46:05.778Z,70.26
2019-04-20T02:51:05.610Z,70.58
2019-04-20T02:56:03.644Z,71.77
2019-04-20T03:00:44.267Z,72.17
2019-04-20T03:05:29.200Z,72.53
2019-04-20T03:15:37.357Z,73.73
2019-04-20T03:20:45.829Z,73.15
2019-04-20T03:32:03.012Z,72.78
2019-04-20T03:40:23.992Z,73.85
2019-04-20T03:45:12.785Z,74.72
2019-04-20T03:50:35.433Z,75.03
2019-04-20T03:55:44.310Z,73.55
2019-04-20T04:00:41.096Z,73.92
2019-04-20T04:05:30.934Z,73.5
2019-04-20T04:10:27.972Z,73.42
2019-04-20T04:15:02.462Z,75.58
2019-04-20T04:20:13.375Z,76.46
2019-04-20T04:25:24.836Z,78.07
2019-04-20T04:30:32.780Z,77.91
2019-04-20T04:35:29.592Z,78.16
2019-04-20T04:41:08.019Z,78.09
2019-04-20T04:45:12.288Z,78.45
2019-04-20T04:50:16.174Z,79.33
2019-04-20T04:55:25.566Z,80.59
2019-04-20T05:00:01.951Z,79.34
2019-04-20T05:05:48.472Z,78.79
2019-04-20T05:10:01.661Z,79.91
2019-04-20T05:15:15.669Z,80.86
2019-04-20T05:20:39.673Z,82.25
2019-04-20T05:25:35.790Z,82.89
2019-04-20T05:30:01.700Z,83.41
2019-04-20T05:35:42.367Z,82.91
2019-04-20T05:40:45.803Z,83.82
2019-04-20T05:45:28.209Z,84.08
2019-04-20T05:50:41.498Z,83.21
2019-04-20T06:10:49.261Z,82.76
2019-04-20T06:15:27.363Z,79.62
2019-04-20T06:20:47.504Z,76.39
2019-04-20T06:26:12.542Z,72.88
2019-04-20T06:30:30.541Z,70.55
2019-04-20T06:41:11.622Z,66.73
2019-04-20T06:50:33.663Z,65.92
2019-04-20T07:00:37.552Z,61.89
2019-04-20T07:05:44.609Z,61.17
2019-04-20T07:10:57.677Z,59.75
2019-04-20T07:15:33.307Z,60.01
2019-04-20T07:20:55.208Z,60.07
2019-04-20T07:25:54.035Z,61.21
2019-04-20T07:40:35.343Z,63.36
2019-04-20T07:45:41.176Z,63.29
2019-04-20T07:50:37.169Z,63.13
2019-04-20T08:01:01.185Z,59.92
2019-04-20T08:05:29.320Z,58.3
2019-04-20T08:10:12.101Z,56.29
2019-04-20T08:16:00.305Z,58.53
2019-04-20T08:20:38.321Z,54.78
2019-04-20T08:25:27.470Z,55.26
2019-04-20T08:40:43.375Z,53.54
2019-04-20T08:45:46.467Z,54.12
2019-04-20T08:50:22.142Z,54.22
2019-04-20T08:55:41.201Z,54.39
2019-04-20T09:00:05.452Z,52.79
2019-04-20T09:05:15.809Z,53.44
2019-04-20T09:10:33.963Z,52.37
2019-04-20T09:15:02.151Z,52.93
2019-04-20T09:20:16.090Z,50.39
2019-04-20T09:25:48.273Z,51.96
2019-04-20T09:30:31.853Z,49.8
2019-04-20T09:35:42.752Z,49.73
2019-04-20T09:40:39.951Z,49.37
2019-04-20T09:45:06.197Z,44.9
2019-04-20T09:50:37.496Z,45.35
2019-04-20T09:55:24.094Z,43.27
2019-04-20T10:05:02.174Z,43.18
2019-04-20T10:10:24.286Z,43.66
2019-04-20T10:15:13.745Z,43.9
2019-04-20T10:20:17.543Z,42.31
2019-04-20T10:25:02.837Z,42.31
2019-04-20T10:30:06.039Z,42.46
2019-04-20T10:35:02.662Z,41.63
2019-04-20T10:40:03.021Z,42.08
2019-04-20T10:45:04.206Z,42.38
2019-04-20T10:50:03.240Z,41.5
2019-04-20T10:55:02.991Z,42.41
2019-04-20T11:00:01.942Z,44.07
2019-04-20T11:05:02.728Z,39.99
2019-04-20T11:10:18.408Z,39.83
2019-04-20T11:15:03.110Z,39.6
2019-04-20T11:20:01.600Z,38.67
2019-04-20T11:25:02.310Z,40.74
2019-04-20T11:30:02.632Z,39.88
2019-04-20T11:35:19.832Z,38.68
2019-04-20T11:40:03.335Z,40.18
2019-04-20T11:45:02.892Z,36.44
2019-04-20T11:50:02.175Z,37.1
2019-04-20T11:55:02.577Z,35
2019-04-20T12:00:03.535Z,35.97
2019-04-20T12:05:24.544Z,33.1
2019-04-20T12:10:14.930Z,35.21
2019-04-20T12:15:02.154Z,35.81
2019-04-20T12:20:01.909Z,31.64
2019-04-20T12:25:02.642Z,33.46
2019-04-20T12:30:02.095Z,31.65
2019-04-20T12:35:02.742Z,31.59
2019-04-20T12:40:03.301Z,32.04
2019-04-20T12:45:01.938Z,31.43
2019-04-20T12:50:01.583Z,31.81
2019-04-20T12:55:06.342Z,31.42
2019-04-20T13:00:01.851Z,29.85
2019-04-20T13:05:03.409Z,30.66
2019-04-20T13:10:04.039Z,29.78
2019-04-20T13:15:02.526Z,30.16
2019-04-20T13:20:01.828Z,28.15
2019-04-20T13:25:03.279Z,29.59
2019-04-20T13:30:03.298Z,28.85
2019-04-20T13:35:02.570Z,28.35
2019-04-20T13:40:03.151Z,28.86
2019-04-20T13:45:01.452Z,28.67
2019-04-20T13:50:03.379Z,29.24
2019-04-20T13:55:02.484Z,29.24
2019-04-20T14:00:02.416Z,29.72
2019-04-20T14:05:02.908Z,29.33
2019-04-20T14:10:03.343Z,29.18
2019-04-20T14:15:03.057Z,27.69
2019-04-20T14:20:13.156Z,27.74
2019-04-20T14:25:03.098Z,29.66
2019-04-20T14:30:01.630Z,27.83
2019-04-20T14:35:03.289Z,28.95
2019-04-20T14:40:01.593Z,28.82
2019-04-20T14:45:02.071Z,29.02
2019-04-20T14:50:03.340Z,28.74
2019-04-20T14:55:01.925Z,29.27
2019-04-20T15:00:01.487Z,28.05
2019-04-20T15:05:02.965Z,28.28
2019-04-20T15:10:03.159Z,28.5
2019-04-20T15:15:03.284Z,28.79
2019-04-20T15:20:01.677Z,28.69
2019-04-20T15:25:03.434Z,30.95
2019-04-20T15:30:02.840Z,28.82
2019-04-20T15:35:03.225Z,28.28
2019-04-20T15:40:01.522Z,27.76
2019-04-20T15:45:03.552Z,27.85
2019-04-20T15:50:02.520Z,27.89
2019-04-20T15:55:14.073Z,29.55
2019-04-20T16:00:02.850Z,28.97
2019-04-20T16:05:01.715Z,30.33
2019-04-20T16:10:03.422Z,30.91
2019-04-20T16:15:02.142Z,28.12
2019-04-20T16:20:13.616Z,28.82
2019-04-20T16:25:01.518Z,28.02
2019-04-20T16:30:02.414Z,28.26
2019-04-20T16:35:02.895Z,29.63
2019-04-20T16:40:06.047Z,29.95
2019-04-20T16:45:01.352Z,32.09
2019-04-20T16:50:01.675Z,28.93
2019-04-20T16:55:02.325Z,27.97
2019-04-20T17:00:03.208Z,28.06
2019-04-20T17:05:01.530Z,27.68
2019-04-20T17:10:02.486Z,27.46
2019-04-20T17:15:01.757Z,27.45
2019-04-20T17:20:02.171Z,28.17
2019-04-20T17:25:02.082Z,28.83
2019-04-20T17:30:03.306Z,30.41
2019-04-20T17:35:28.017Z,28.4
2019-04-20T17:40:33.710Z,31.81
2019-04-20T17:45:16.452Z,28.95
2019-04-20T17:50:35.409Z,34.48
2019-04-20T17:55:03.569Z,36.03
2019-04-20T18:00:05.754Z,36.13
2019-04-20T18:05:38.700Z,36.42
2019-04-20T18:10:37.553Z,35.9
2019-04-20T18:15:40.189Z,36.09
2019-04-20T18:20:03.759Z,36.87
2019-04-20T18:25:50.444Z,36.68
2019-04-20T18:30:32.187Z,37.23
2019-04-20T18:35:08.215Z,38.41
2019-04-20T18:40:11.032Z,38.35
2019-04-20T18:45:26.361Z,38.66
2019-04-20T18:50:18.246Z,41.08
2019-04-20T18:55:15.720Z,40.4
2019-04-20T19:00:04.590Z,41.54
2019-04-20T19:05:06.569Z,40.44
2019-04-20T19:10:21.794Z,42.5
2019-04-20T19:15:47.433Z,46.47
2019-04-20T19:20:05.591Z,44.89
2019-04-20T19:25:03.408Z,47.26
2019-04-20T19:30:27.247Z,50.88
2019-04-20T19:35:29.355Z,49.97
2019-04-20T19:40:21.746Z,48.45
2019-04-20T19:45:41.604Z,52.16
2019-04-20T19:55:36.424Z,54.58
2019-04-20T20:00:05.746Z,53.41
2019-04-20T20:05:10.583Z,53.31
2019-04-20T20:10:09.005Z,55.81
2019-04-20T20:15:05.395Z,55.8
2019-04-20T20:25:03.253Z,51.81
2019-04-20T20:30:22.643Z,51.46
2019-04-20T20:35:20.618Z,50.23
2019-04-20T20:40:22.945Z,47.94
2019-04-20T20:45:25.979Z,46.75
2019-04-20T20:50:36.268Z,46.47
2019-04-20T20:55:25.397Z,46.36
2019-04-20T21:00:27.908Z,46.38
2019-04-20T21:05:02.187Z,45.63
2019-04-20T21:10:01.992Z,44.99
2019-04-20T21:15:14.152Z,44.98
2019-04-20T21:20:33.664Z,44.55
2019-04-20T21:25:01.578Z,44.11
2019-04-20T21:30:05.453Z,43.29
2019-04-20T21:35:10.772Z,42.69
2019-04-20T21:40:24.847Z,42.69
2019-04-20T21:45:16.288Z,42.41
2019-04-20T21:50:34.373Z,42.6
2019-04-20T21:55:01.689Z,43.06
2019-04-20T22:00:23.940Z,43.33
2019-04-20T22:05:01.537Z,44.46
2019-04-20T22:10:02.557Z,44.49
2019-04-20T22:15:17.763Z,43.88
2019-04-20T22:20:23.154Z,44.1
2019-04-20T22:25:42.121Z,43.47
2019-04-20T22:30:02.332Z,43.83
2019-04-20T22:35:12.364Z,43.79
2019-04-20T22:40:03.361Z,43.27
2019-04-20T22:45:09.814Z,43.69
2019-04-20T22:50:38.176Z,43.49
2019-04-20T23:00:14.422Z,47.32
2019-04-20T23:05:03.009Z,47.91
2019-04-20T23:10:04.852Z,47.91
2019-04-20T23:15:03.019Z,48.16
2019-04-20T23:20:12.582Z,48.17
2019-04-20T23:25:03.277Z,51.56
2019-04-20T23:30:12.479Z,50.35
2019-04-20T23:35:09.652Z,51.84
2019-04-20T23:40:06.224Z,55.96
2019-04-20T23:45:03.780Z,57.31
2019-04-20T23:50:36.712Z,57.52
2019-04-20T23:55:10.187Z,59.89
